createdAt,value
2018-02-15T00:00:34.827Z,26.15
2018-02-15T00:01:39.974Z,21.70
2018-02-15T00:02:44.482Z,26.37
2018-02-15T00:03:48.999Z,24.23
2018-02-15T00:04:53.521Z,23.95
2018-02-15T00:05:59.264Z,21.83
2018-02-15T00:07:05.306Z,23.50
2018-02-15T00:08:10.061Z,26.08
2018-02-15T00:09:14.513Z,22.92
2018-02-15T00:10:20.953Z,26.23
2018-02-15T00:11:26.758Z,25.58
2018-02-15T00:12:31.234Z,26.83
2018-02-15T00:13:35.709Z,26.80
2018-02-15T00:14:41.255Z,22.70
2018-02-15T00:15:46.703Z,27.48
2018-02-15T00:16:51.201Z,21.20
2018-02-15T00:17:56.249Z,22.37
2018-02-15T00:19:01.639Z,24.00
2018-02-15T00:20:06.937Z,25.05
2018-02-15T00:21:12.368Z,25.33
2018-02-15T00:22:18.271Z,21.70
2018-02-15T00:23:22.971Z,18.37
2018-02-15T00:24:29.204Z,23.62
2018-02-15T00:25:33.702Z,22.23
2018-02-15T00:26:38.585Z,21.67
2018-02-15T00:27:43.358Z,22.45
2018-02-15T00:28:47.813Z,19.70
2018-02-15T00:29:52.344Z,24.98
2018-02-15T00:30:56.930Z,18.98
2018-02-15T00:32:01.403Z,23.70
2018-02-15T00:33:07.537Z,27.92
2018-02-15T00:34:13.162Z,27.02
2018-02-15T00:35:17.626Z,19.50
2018-02-15T00:36:22.189Z,22.37
2018-02-15T00:37:26.681Z,25.30
2018-02-15T00:38:31.328Z,23.35
2018-02-15T00:39:36.068Z,24.85
2018-02-15T00:40:41.687Z,17.15
2018-02-15T00:41:46.194Z,22.58
2018-02-15T00:42:51.801Z,22.48
2018-02-15T00:43:56.279Z,26.62
2018-02-15T00:45:01.618Z,29.02
2018-02-15T00:46:07.621Z,27.27
2018-02-15T00:47:13.387Z,18.02
2018-02-15T00:48:18.715Z,18.90
2018-02-15T00:49:23.949Z,19.02
2018-02-15T00:50:29.446Z,23.80
2018-02-15T00:51:33.938Z,27.73
2018-02-15T00:52:38.861Z,21.98
2018-02-15T00:53:43.542Z,23.70
2018-02-15T00:54:48.153Z,32.28
2018-02-15T00:55:54.080Z,23.38
2018-02-15T00:56:59.774Z,23.10
2018-02-15T00:58:05.790Z,23.60
2018-02-15T00:59:11.034Z,26.92
2018-02-15T01:00:15.538Z,23.77
2018-02-15T01:01:21.285Z,22.45
2018-02-15T01:02:25.804Z,21.87
2018-02-15T01:03:30.396Z,21.60
2018-02-15T01:04:34.889Z,28.20
2018-02-15T01:05:40.158Z,25.55
2018-02-15T01:06:44.626Z,22.05
2018-02-15T01:07:51.788Z,17.52
2018-02-15T01:08:58.136Z,19.25
2018-02-15T01:10:02.612Z,23.02
2018-02-15T01:11:07.214Z,19.50
2018-02-15T01:12:12.647Z,28.70
2018-02-15T01:13:19.668Z,23.80
2018-02-15T01:14:24.284Z,18.10
2018-02-15T01:15:29.669Z,18.92
2018-02-15T01:16:34.139Z,22.02
2018-02-15T01:17:39.368Z,21.23
2018-02-15T01:18:45.576Z,22.85
2018-02-15T01:19:50.783Z,23.52
2018-02-15T01:20:55.393Z,21.10
2018-02-15T01:22:00.276Z,22.45
2018-02-15T01:23:04.742Z,17.80
2018-02-15T01:24:10.254Z,23.10
2018-02-15T01:25:14.693Z,18.48
2018-02-15T01:26:19.148Z,21.40
2018-02-15T01:27:27.143Z,22.25
2018-02-15T01:28:33.916Z,19.27
2018-02-15T01:29:39.194Z,16.58
2018-02-15T01:30:44.603Z,18.00
2018-02-15T01:31:50.231Z,20.62
2018-02-15T01:32:55.692Z,19.25
2018-02-15T01:34:00.389Z,20.67
2018-02-15T01:35:05.593Z,21.30
2018-02-15T01:36:12.801Z,26.20
2018-02-15T01:37:17.387Z,20.15
2018-02-15T01:38:22.053Z,20.35
2018-02-15T01:39:26.515Z,20.25
2018-02-15T01:40:31.007Z,22.60
2018-02-15T01:41:36.275Z,23.60
2018-02-15T01:42:40.732Z,21.10
2018-02-15T01:43:47.050Z,21.12
2018-02-15T01:44:51.877Z,20.80
2018-02-15T01:45:58.152Z,42.05
2018-02-15T01:47:02.929Z,19.77
2018-02-15T01:48:07.874Z,21.98
2018-02-15T01:49:12.354Z,21.08
2018-02-15T01:50:16.813Z,22.70
2018-02-15T01:51:22.933Z,20.23
2018-02-15T01:52:27.793Z,23.30
2018-02-15T01:53:33.155Z,19.25
2018-02-15T01:54:37.937Z,21.80
2018-02-15T01:55:42.979Z,22.30
2018-02-15T01:56:48.218Z,19.02
2018-02-15T01:57:53.578Z,23.87
2018-02-15T01:58:58.819Z,20.40
2018-02-15T02:00:04.405Z,22.50
2018-02-15T02:01:09.739Z,24.08
2018-02-15T02:02:14.435Z,23.48
2018-02-15T02:03:18.931Z,19.37
2018-02-15T02:04:23.460Z,23.58
2018-02-15T02:05:28.012Z,23.67
2018-02-15T02:06:32.528Z,27.20
2018-02-15T02:07:36.989Z,19.30
2018-02-15T02:08:42.037Z,20.52
2018-02-15T02:09:46.822Z,21.50
2018-02-15T02:10:52.146Z,20.92
2018-02-15T02:11:56.629Z,16.23
2018-02-15T02:13:01.865Z,21.48
2018-02-15T02:14:06.401Z,21.73
2018-02-15T02:15:11.516Z,23.10
2018-02-15T02:16:16.938Z,24.87
2018-02-15T02:17:23.531Z,24.05
2018-02-15T02:18:27.990Z,25.73
2018-02-15T02:19:33.202Z,19.65
2018-02-15T02:20:37.906Z,20.15
2018-02-15T02:21:43.427Z,20.92
2018-02-15T02:22:48.043Z,19.00
2018-02-15T02:23:52.780Z,21.20
2018-02-15T02:24:57.554Z,24.77
2018-02-15T02:26:02.335Z,18.23
2018-02-15T02:27:07.831Z,17.90
2018-02-15T02:28:12.686Z,23.10
2018-02-15T02:29:18.698Z,21.62
2018-02-15T02:30:23.177Z,18.48
2018-02-15T02:31:27.635Z,16.35
2018-02-15T02:32:32.570Z,21.92
2018-02-15T02:33:38.150Z,20.40
2018-02-15T02:34:42.998Z,25.00
2018-02-15T02:35:49.467Z,20.58
2018-02-15T02:36:55.397Z,19.45
2018-02-15T02:38:00.111Z,20.58
2018-02-15T02:39:05.350Z,21.27
2018-02-15T02:40:10.647Z,24.23
2018-02-15T02:41:15.142Z,26.95
2018-02-15T02:42:19.670Z,21.33
2018-02-15T02:43:24.128Z,27.80
2018-02-15T02:44:29.338Z,22.20
2018-02-15T02:45:34.592Z,26.83
2018-02-15T02:46:41.593Z,27.30
2018-02-15T02:47:46.864Z,27.73
2018-02-15T02:48:51.344Z,20.02
2018-02-15T02:49:56.656Z,22.62
2018-02-15T02:51:01.135Z,18.58
2018-02-15T02:52:06.395Z,24.52
2018-02-15T02:53:11.146Z,22.27
2018-02-15T02:54:15.758Z,23.87
2018-02-15T02:55:21.484Z,23.58
2018-02-15T02:56:25.991Z,20.75
2018-02-15T02:57:30.688Z,24.15
2018-02-15T02:58:35.460Z,23.17
2018-02-15T02:59:40.667Z,20.00
2018-02-15T03:00:45.130Z,22.33
2018-02-15T03:01:50.626Z,19.73
2018-02-15T03:02:56.054Z,20.77
2018-02-15T03:04:00.793Z,16.90
2018-02-15T03:05:06.951Z,21.58
2018-02-15T03:06:13.321Z,19.95
2018-02-15T03:07:17.847Z,17.95
2018-02-15T03:08:22.741Z,18.95
2018-02-15T03:09:28.259Z,20.45
2018-02-15T03:10:33.064Z,20.12
2018-02-15T03:11:37.600Z,24.23
2018-02-15T03:12:42.889Z,20.15
2018-02-15T03:13:48.601Z,18.40
2018-02-15T03:14:53.081Z,24.55
2018-02-15T03:15:58.598Z,19.95
2018-02-15T03:17:03.036Z,22.58
2018-02-15T03:18:08.287Z,22.90
2018-02-15T03:19:13.859Z,22.67
2018-02-15T03:20:18.635Z,25.62
2018-02-15T03:21:23.213Z,26.52
2018-02-15T03:22:27.711Z,22.87
2018-02-15T03:23:33.452Z,21.50
2018-02-15T03:24:38.724Z,20.73
2018-02-15T03:25:43.164Z,18.30
2018-02-15T03:26:47.621Z,20.67
2018-02-15T03:27:52.821Z,22.17
2018-02-15T03:28:58.588Z,19.23
2018-02-15T03:30:03.048Z,18.08
2018-02-15T03:31:07.485Z,26.40
2018-02-15T03:32:12.866Z,18.73
2018-02-15T03:33:18.339Z,22.30
2018-02-15T03:34:23.261Z,20.33
2018-02-15T03:35:30.020Z,30.55
2018-02-15T03:36:34.497Z,22.23
2018-02-15T03:37:38.959Z,24.15
2018-02-15T03:38:43.404Z,31.20
2018-02-15T03:39:49.776Z,20.45
2018-02-15T03:40:55.147Z,30.83
2018-02-15T03:42:01.087Z,19.85
2018-02-15T03:43:05.572Z,20.17
2018-02-15T03:44:10.380Z,19.52
2018-02-15T03:45:14.839Z,23.77
2018-02-15T03:46:19.519Z,20.40
2018-02-15T03:47:24.961Z,22.30
2018-02-15T03:48:29.470Z,20.52
2018-02-15T03:49:33.914Z,25.27
2018-02-15T03:50:38.821Z,23.75
2018-02-15T03:51:45.109Z,19.73
2018-02-15T03:52:50.572Z,23.80
2018-02-15T03:53:55.950Z,23.55
2018-02-15T03:55:01.732Z,30.98
2018-02-15T03:56:07.785Z,23.75
2018-02-15T03:57:13.017Z,22.42
2018-02-15T03:58:17.514Z,18.95
2018-02-15T03:59:22.803Z,25.90
2018-02-15T04:00:28.447Z,26.00
2018-02-15T04:01:32.977Z,22.85
2018-02-15T04:02:38.358Z,23.12
2018-02-15T04:03:42.825Z,19.73
2018-02-15T04:04:48.071Z,24.75
2018-02-15T04:05:54.190Z,27.92
2018-02-15T04:06:58.869Z,21.17
2018-02-15T04:08:03.862Z,26.90
2018-02-15T04:09:09.471Z,21.00
2018-02-15T04:10:13.973Z,24.70
2018-02-15T04:11:19.555Z,23.25
2018-02-15T04:12:24.851Z,30.98
2018-02-15T04:13:29.447Z,21.37
2018-02-15T04:14:34.441Z,22.33
2018-02-15T04:15:39.749Z,22.60
2018-02-15T04:16:44.874Z,26.45
2018-02-15T04:17:49.319Z,25.48
2018-02-15T04:18:53.773Z,28.83
2018-02-15T04:19:59.497Z,27.90
2018-02-15T04:21:03.954Z,28.55
2018-02-15T04:22:09.965Z,29.87
2018-02-15T04:23:14.577Z,27.30
2018-02-15T04:24:18.997Z,33.72
2018-02-15T04:25:24.214Z,28.73
2018-02-15T04:26:30.714Z,27.15
2018-02-15T04:27:35.151Z,34.10
2018-02-15T04:28:40.379Z,32.15
2018-02-15T04:29:44.851Z,30.75
2018-02-15T04:30:50.632Z,31.60
2018-02-15T04:31:55.299Z,29.87
2018-02-15T04:33:01.242Z,39.17
2018-02-15T04:34:06.481Z,33.33
2018-02-15T04:35:11.877Z,34.50
2018-02-15T04:36:17.225Z,34.53
2018-02-15T04:37:23.683Z,31.60
2018-02-15T04:38:28.989Z,40.30
2018-02-15T04:39:34.513Z,36.10
2018-02-15T04:40:39.064Z,28.80
2018-02-15T04:41:46.556Z,39.05
2018-02-15T04:42:52.126Z,36.60
2018-02-15T04:43:57.411Z,30.62
2018-02-15T04:45:03.849Z,35.50
2018-02-15T04:46:08.338Z,34.78
2018-02-15T04:47:13.515Z,32.47
2018-02-15T04:48:18.874Z,35.15
2018-02-15T04:49:23.305Z,31.48
2018-02-15T04:50:27.950Z,32.55
2018-02-15T04:51:32.456Z,34.03
2018-02-15T04:52:37.035Z,33.03
2018-02-15T04:53:41.571Z,33.08
2018-02-15T04:54:46.032Z,33.25
2018-02-15T04:55:50.574Z,36.97
2018-02-15T04:56:55.931Z,34.38
2018-02-15T04:58:00.620Z,37.70
2018-02-15T04:59:05.364Z,35.22
2018-02-15T05:00:10.549Z,36.53
2018-02-15T05:01:15.027Z,33.30
2018-02-15T05:02:20.657Z,41.15
2018-02-15T05:03:26.831Z,37.72
2018-02-15T05:05:33.918Z,35.20
2018-02-15T05:06:38.901Z,35.30
2018-02-15T05:07:44.369Z,35.85
2018-02-15T05:08:48.960Z,40.60
2018-02-15T05:09:54.209Z,37.53
2018-02-15T05:10:58.678Z,34.25
2018-02-15T05:12:03.124Z,36.80
2018-02-15T05:13:08.078Z,39.63
2018-02-15T05:14:13.453Z,37.03
2018-02-15T05:15:18.550Z,36.83
2018-02-15T05:16:22.989Z,43.13
2018-02-15T05:17:27.461Z,35.22
2018-02-15T05:18:31.918Z,34.38
2018-02-15T05:19:38.413Z,42.15
2018-02-15T05:20:43.574Z,40.80
2018-02-15T05:21:48.011Z,39.50
2018-02-15T05:22:53.235Z,37.05
2018-02-15T05:23:57.975Z,40.70
2018-02-15T05:25:02.782Z,43.83
2018-02-15T05:26:08.960Z,38.15
2018-02-15T05:27:13.521Z,37.40
2018-02-15T05:28:18.980Z,37.42
2018-02-15T05:29:25.104Z,36.53
2018-02-15T05:30:29.572Z,39.60
2018-02-15T05:31:34.147Z,39.95
2018-02-15T05:32:39.353Z,38.83
2018-02-15T05:33:43.793Z,35.20
2018-02-15T05:34:49.013Z,34.30
2018-02-15T05:35:54.487Z,37.63
2018-02-15T05:36:59.506Z,39.95
2018-02-15T05:38:04.819Z,36.72
2018-02-15T05:39:11.217Z,40.15
2018-02-15T05:40:15.716Z,47.53
2018-02-15T05:41:20.218Z,38.08
2018-02-15T05:42:25.457Z,38.33
2018-02-15T05:43:29.940Z,39.83
2018-02-15T05:44:35.724Z,42.15
2018-02-15T05:45:40.168Z,41.78
2018-02-15T05:46:45.392Z,37.45
2018-02-15T05:47:50.373Z,39.35
2018-02-15T05:48:56.206Z,39.88
2018-02-15T05:50:00.709Z,47.83
2018-02-15T05:51:05.179Z,35.85
2018-02-15T05:52:09.661Z,39.20
2018-02-15T05:53:14.156Z,40.80
2018-02-15T05:54:19.350Z,41.75
2018-02-15T05:55:25.281Z,34.45
2018-02-15T05:56:31.339Z,37.45
2018-02-15T05:57:37.562Z,39.17
2018-02-15T05:58:42.448Z,36.45
2018-02-15T05:59:47.676Z,41.28
2018-02-15T06:00:53.939Z,41.83
2018-02-15T06:01:58.373Z,41.58
2018-02-15T06:03:03.873Z,39.85
2018-02-15T06:04:09.783Z,37.47
2018-02-15T06:05:16.026Z,39.75
2018-02-15T06:06:21.295Z,42.72
2018-02-15T06:07:26.178Z,36.63
2018-02-15T06:08:32.381Z,43.97
2018-02-15T06:09:37.106Z,45.58
2018-02-15T06:10:41.840Z,40.10
2018-02-15T06:11:48.806Z,38.60
2018-02-15T06:12:54.614Z,32.58
2018-02-15T06:13:59.087Z,37.03
2018-02-15T06:15:04.596Z,41.70
2018-02-15T06:16:09.152Z,40.72
2018-02-15T06:17:13.657Z,36.13
2018-02-15T06:18:18.134Z,41.45
2018-02-15T06:19:22.641Z,48.35
2018-02-15T06:20:29.015Z,39.88
2018-02-15T06:21:34.624Z,43.42
2018-02-15T06:22:40.197Z,44.17
2018-02-15T06:23:45.430Z,38.00
2018-02-15T06:24:51.543Z,41.90
2018-02-15T06:25:55.999Z,42.95
2018-02-15T06:27:00.445Z,40.85
2018-02-15T06:28:04.900Z,38.83
2018-02-15T06:29:10.142Z,39.22
2018-02-15T06:30:14.590Z,41.28
2018-02-15T06:31:20.913Z,39.88
2018-02-15T06:32:25.440Z,41.25
2018-02-15T06:33:30.972Z,45.88
2018-02-15T06:34:35.729Z,55.05
2018-02-15T06:35:41.516Z,41.85
2018-02-15T06:36:46.713Z,40.78
2018-02-15T06:37:51.220Z,40.47
2018-02-15T06:38:55.721Z,40.67
2018-02-15T06:40:00.197Z,35.80
2018-02-15T06:41:04.700Z,37.45
2018-02-15T06:42:09.257Z,40.72
2018-02-15T06:43:13.720Z,39.28
2018-02-15T06:44:19.368Z,40.17
2018-02-15T06:45:24.187Z,43.40
2018-02-15T06:46:28.700Z,45.30
2018-02-15T06:47:33.208Z,39.13
2018-02-15T06:48:39.702Z,41.35
2018-02-15T06:49:45.129Z,40.58
2018-02-15T06:50:49.698Z,39.00
2018-02-15T06:51:54.801Z,44.20
2018-02-15T06:53:00.031Z,40.50
2018-02-15T06:54:05.271Z,41.28
2018-02-15T06:55:11.089Z,43.08
2018-02-15T06:56:15.532Z,40.28
2018-02-15T06:57:20.032Z,44.28
2018-02-15T06:58:24.567Z,37.75
2018-02-15T06:59:29.020Z,35.03
2018-02-15T07:00:33.590Z,42.15
2018-02-15T07:01:38.738Z,41.30
2018-02-15T07:02:43.197Z,40.97
2018-02-15T07:03:48.937Z,38.75
2018-02-15T07:04:54.164Z,35.83
2018-02-15T07:05:59.388Z,40.90
2018-02-15T07:07:06.034Z,44.00
2018-02-15T07:08:10.510Z,40.70
2018-02-15T07:09:15.567Z,38.55
2018-02-15T07:10:20.018Z,34.95
2018-02-15T07:11:24.487Z,40.45
2018-02-15T07:12:28.963Z,37.50
2018-02-15T07:13:34.850Z,36.45
2018-02-15T07:14:39.974Z,40.97
2018-02-15T07:15:44.478Z,33.10
2018-02-15T07:16:48.954Z,37.00
2018-02-15T07:17:54.345Z,32.45
2018-02-15T07:18:59.648Z,34.17
2018-02-15T07:20:06.224Z,32.70
2018-02-15T07:21:10.936Z,33.45
2018-02-15T07:22:15.573Z,31.30
2018-02-15T07:23:22.934Z,29.63
2018-02-15T07:24:27.400Z,30.95
2018-02-15T07:25:31.871Z,33.33
2018-02-15T07:26:37.119Z,32.22
2018-02-15T07:27:42.365Z,37.17
2018-02-15T07:28:46.892Z,33.30
2018-02-15T07:29:53.191Z,31.42
2018-02-15T07:30:59.649Z,32.28
2018-02-15T07:32:05.657Z,27.45
2018-02-15T07:33:10.139Z,32.83
2018-02-15T07:34:14.652Z,32.33
2018-02-15T07:35:19.116Z,30.08
2018-02-15T07:36:25.444Z,29.95
2018-02-15T07:37:30.742Z,33.95
2018-02-15T07:38:35.869Z,30.17
2018-02-15T07:39:41.342Z,30.20
2018-02-15T07:40:47.532Z,28.05
2018-02-15T07:41:53.721Z,31.75
2018-02-15T07:42:58.544Z,37.67
2018-02-15T07:44:03.035Z,30.48
2018-02-15T07:45:08.767Z,29.50
2018-02-15T07:46:13.283Z,31.98
2018-02-15T07:47:18.725Z,28.25
2018-02-15T07:48:23.919Z,24.92
2018-02-15T07:49:30.057Z,29.15
2018-02-15T07:50:34.617Z,27.48
2018-02-15T07:51:39.792Z,28.83
2018-02-15T07:52:44.916Z,29.90
2018-02-15T07:53:49.474Z,28.45
2018-02-15T07:54:54.090Z,26.17
2018-02-15T07:55:58.589Z,27.05
2018-02-15T07:57:03.935Z,23.85
2018-02-15T07:58:09.278Z,24.77
2018-02-15T07:59:13.934Z,26.62
2018-02-15T08:00:19.829Z,29.67
2018-02-15T08:01:24.337Z,28.80
2018-02-15T08:02:28.814Z,27.58
2018-02-15T08:03:34.144Z,30.95
2018-02-15T08:04:40.390Z,33.05
2018-02-15T08:05:45.633Z,28.60
2018-02-15T08:06:50.897Z,26.52
2018-02-15T08:07:58.883Z,30.52
2018-02-15T08:09:03.380Z,31.67
2018-02-15T08:10:10.231Z,28.80
2018-02-15T08:11:16.128Z,27.52
2018-02-15T08:12:20.585Z,25.73
2018-02-15T08:13:26.631Z,28.10
2018-02-15T08:14:32.842Z,32.00
2018-02-15T08:15:37.918Z,25.27
2018-02-15T08:16:44.672Z,27.83
2018-02-15T08:17:50.823Z,27.55
2018-02-15T08:18:56.995Z,31.15
2018-02-15T08:20:01.479Z,28.38
2018-02-15T08:21:06.710Z,29.52
2018-02-15T08:22:12.846Z,28.48
2018-02-15T08:23:18.346Z,27.40
2018-02-15T08:24:22.886Z,24.95
2018-02-15T08:25:27.375Z,30.77
2018-02-15T08:26:31.893Z,22.70
2018-02-15T08:27:36.374Z,26.58
2018-02-15T08:28:41.692Z,27.40
2018-02-15T08:29:46.964Z,31.60
2018-02-15T08:30:52.534Z,30.73
2018-02-15T08:31:57.778Z,31.00
2018-02-15T08:33:04.030Z,24.10
2018-02-15T08:34:08.528Z,26.85
2018-02-15T08:35:14.947Z,26.50
2018-02-15T08:36:19.443Z,26.25
2018-02-15T08:37:24.885Z,28.20
2018-02-15T08:38:29.897Z,32.13
2018-02-15T08:39:34.848Z,27.70
2018-02-15T08:40:40.794Z,27.65
2018-02-15T08:41:46.430Z,28.25
2018-02-15T08:42:50.945Z,30.95
2018-02-15T08:43:55.508Z,30.98
2018-02-15T08:45:00.750Z,24.75
2018-02-15T08:46:05.390Z,28.27
2018-02-15T08:47:10.777Z,26.95
2018-02-15T08:48:15.555Z,26.83
2018-02-15T08:49:20.108Z,27.55
2018-02-15T08:50:25.393Z,33.08
2018-02-15T08:51:30.699Z,29.17
2018-02-15T08:52:35.240Z,29.63
2018-02-15T08:53:41.545Z,28.70
2018-02-15T08:54:46.076Z,48.50
2018-02-15T08:55:50.553Z,33.83
2018-02-15T08:56:55.116Z,32.78
2018-02-15T08:58:00.772Z,27.55
2018-02-15T08:59:04.742Z,28.20
2018-02-15T09:00:09.434Z,29.95
2018-02-15T09:01:13.893Z,30.52
2018-02-15T09:02:18.378Z,30.50
2018-02-15T09:03:22.874Z,32.33
2018-02-15T09:04:27.332Z,28.98
2018-02-15T09:05:32.582Z,25.60
2018-02-15T09:06:37.861Z,28.45
2018-02-15T09:07:42.398Z,22.37
2018-02-15T09:08:46.879Z,29.52
2018-02-15T09:09:52.122Z,25.80
2018-02-15T09:10:57.421Z,27.90
2018-02-15T09:12:01.898Z,29.73
2018-02-15T09:13:07.187Z,27.23
2018-02-15T09:14:12.003Z,39.20
2018-02-15T09:15:16.512Z,28.85
2018-02-15T09:16:20.992Z,28.73
2018-02-15T09:17:26.793Z,53.50
2018-02-15T09:18:32.099Z,29.08
2018-02-15T09:19:36.580Z,31.92
2018-02-15T09:20:41.348Z,29.87
2018-02-15T09:21:46.435Z,26.10
2018-02-15T09:22:50.964Z,36.30
2018-02-15T09:23:55.478Z,27.00
2018-02-15T09:25:00.936Z,29.48
2018-02-15T09:26:05.818Z,26.12
2018-02-15T09:27:10.312Z,25.27
2018-02-15T09:28:14.810Z,26.75
2018-02-15T09:29:20.036Z,28.65
2018-02-15T09:30:25.294Z,29.05
2018-02-15T09:31:30.985Z,30.30
2018-02-15T09:32:35.457Z,33.20
2018-02-15T09:33:40.282Z,31.35
2018-02-15T09:34:45.584Z,28.90
2018-02-15T09:35:50.102Z,30.85
2018-02-15T09:36:55.182Z,28.52
2018-02-15T09:38:01.479Z,28.92
2018-02-15T09:39:07.624Z,26.00
2018-02-15T09:40:12.194Z,34.15
2018-02-15T09:41:17.477Z,27.15
2018-02-15T09:42:23.136Z,31.35
2018-02-15T09:43:28.729Z,28.40
2018-02-15T09:44:33.246Z,34.63
2018-02-15T09:45:38.575Z,28.85
2018-02-15T09:46:43.101Z,25.40
2018-02-15T09:47:48.625Z,40.88
2018-02-15T09:48:53.138Z,31.92
2018-02-15T09:49:58.439Z,35.30
2018-02-15T09:51:03.721Z,38.78
2018-02-15T09:52:09.104Z,29.30
2018-02-15T09:53:15.285Z,30.25
2018-02-15T09:54:19.779Z,36.90
2018-02-15T09:55:25.048Z,33.28
2018-02-15T09:56:30.204Z,30.50
2018-02-15T09:57:36.606Z,32.58
2018-02-15T09:58:41.182Z,28.52
2018-02-15T09:59:46.510Z,29.37
2018-02-15T10:00:52.093Z,31.67
2018-02-15T10:01:57.781Z,30.90
2018-02-15T10:03:02.406Z,29.48
2018-02-15T10:04:10.682Z,30.90
2018-02-15T10:05:16.541Z,26.52
2018-02-15T10:06:21.895Z,31.70
2018-02-15T10:07:28.015Z,26.77
2018-02-15T10:08:33.645Z,29.15
2018-02-15T10:09:38.127Z,36.45
2018-02-15T10:10:44.958Z,28.65
2018-02-15T10:11:49.489Z,34.65
2018-02-15T10:12:54.935Z,31.45
2018-02-15T10:13:59.672Z,28.85
2018-02-15T10:15:04.202Z,33.80
2018-02-15T10:16:08.734Z,26.65
2018-02-15T10:17:14.805Z,29.50
2018-02-15T10:18:20.110Z,31.87
2018-02-15T10:19:26.339Z,27.85
2018-02-15T10:20:31.061Z,26.15
2018-02-15T10:21:36.431Z,27.77
2018-02-15T10:22:41.033Z,27.98
2018-02-15T10:23:47.446Z,31.37
2018-02-15T10:24:51.949Z,34.42
2018-02-15T10:25:58.077Z,36.78
2018-02-15T10:27:03.212Z,31.37
2018-02-15T10:28:08.504Z,33.15
2018-02-15T10:29:13.817Z,32.20
2018-02-15T10:30:18.402Z,32.08
2018-02-15T10:31:23.521Z,36.53
2018-02-15T10:32:28.529Z,37.95
2018-02-15T10:33:34.477Z,30.98
2018-02-15T10:34:39.848Z,33.38
2018-02-15T10:35:45.869Z,30.95
2018-02-15T10:36:52.441Z,33.53
2018-02-15T10:37:57.871Z,33.67
2018-02-15T10:39:02.366Z,31.12
2018-02-15T10:40:06.998Z,33.30
2018-02-15T10:41:11.888Z,31.90
2018-02-15T10:42:16.396Z,32.55
2018-02-15T10:43:20.909Z,30.10
2018-02-15T10:44:25.390Z,32.80
2018-02-15T10:45:32.276Z,31.10
2018-02-15T10:46:36.789Z,30.08
2018-02-15T10:47:41.312Z,31.73
2018-02-15T10:48:45.919Z,40.83
2018-02-15T10:49:53.028Z,37.55
2018-02-15T10:50:57.675Z,32.05
2018-02-15T10:52:03.947Z,34.95
2018-02-15T10:53:08.453Z,31.40
2018-02-15T10:54:17.547Z,36.72
2018-02-15T10:55:22.074Z,36.72
2018-02-15T10:56:28.183Z,46.70
2018-02-15T10:57:32.726Z,26.98
2018-02-15T10:58:38.301Z,31.60
2018-02-15T10:59:42.869Z,34.85
2018-02-15T11:00:53.653Z,29.15
2018-02-15T11:02:03.100Z,29.30
2018-02-15T11:03:12.071Z,31.62
2018-02-15T11:04:21.297Z,32.47
2018-02-15T11:05:29.989Z,31.58
2018-02-15T11:06:34.913Z,34.00
2018-02-15T11:07:39.659Z,32.22
2018-02-15T11:08:44.919Z,30.45
2018-02-15T11:09:49.781Z,31.25
2018-02-15T11:10:54.500Z,37.22
2018-02-15T11:11:58.980Z,32.10
2018-02-15T11:13:04.214Z,26.37
2018-02-15T11:14:08.863Z,32.15
2018-02-15T11:15:14.104Z,29.77
2018-02-15T11:16:19.432Z,31.70
2018-02-15T11:17:23.990Z,50.08
2018-02-15T11:18:28.545Z,51.30
2018-02-15T11:19:34.153Z,27.98
2018-02-15T11:20:39.220Z,26.48
2018-02-15T11:21:44.514Z,28.95
2018-02-15T11:22:48.993Z,28.42
2018-02-15T11:23:54.008Z,27.60
2018-02-15T11:24:58.544Z,38.88
2018-02-15T11:26:03.062Z,28.12
2018-02-15T11:27:08.990Z,35.85
2018-02-15T11:28:13.539Z,45.78
2018-02-15T11:29:18.151Z,43.90
2018-02-15T11:30:23.090Z,50.42
2018-02-15T11:31:28.352Z,28.60
2018-02-15T11:32:33.429Z,33.47
2018-02-15T11:33:38.469Z,33.03
2018-02-15T11:34:44.746Z,35.95
2018-02-15T11:35:50.916Z,33.58
2018-02-15T11:36:55.420Z,36.78
2018-02-15T11:38:00.250Z,26.90
2018-02-15T11:39:04.879Z,28.25
2018-02-15T11:40:09.613Z,34.42
2018-02-15T11:41:14.882Z,30.88
2018-02-15T11:42:20.249Z,37.33
2018-02-15T11:43:25.051Z,29.00
2018-02-15T11:44:29.583Z,33.08
2018-02-15T11:45:34.673Z,29.35
2018-02-15T11:46:40.015Z,29.27
2018-02-15T11:47:44.576Z,33.22
2018-02-15T11:48:49.149Z,30.50
2018-02-15T11:49:54.537Z,33.28
2018-02-15T11:50:59.079Z,35.40
2018-02-15T11:52:04.398Z,28.75
2018-02-15T11:53:10.291Z,24.98
2018-02-15T11:54:15.759Z,32.38
2018-02-15T11:55:20.749Z,38.00
2018-02-15T11:56:25.292Z,33.08
2018-02-15T11:57:30.316Z,28.77
2018-02-15T11:58:34.875Z,32.13
2018-02-15T11:59:39.956Z,35.38
2018-02-15T12:00:45.497Z,26.08
2018-02-15T12:01:50.206Z,36.40
2018-02-15T12:02:55.783Z,28.23
2018-02-15T12:04:00.433Z,28.40
2018-02-15T12:05:06.121Z,31.95
2018-02-15T12:06:12.261Z,31.95
2018-02-15T12:07:17.634Z,34.13
2018-02-15T12:08:22.675Z,33.47
2018-02-15T12:09:27.709Z,51.95
2018-02-15T12:10:32.444Z,28.52
2018-02-15T12:11:38.147Z,40.45
2018-02-15T12:12:42.685Z,28.55
2018-02-15T12:13:47.989Z,28.77
2018-02-15T12:14:52.549Z,27.98
2018-02-15T12:15:57.141Z,28.20
2018-02-15T12:17:01.939Z,31.70
2018-02-15T12:18:07.735Z,29.87
2018-02-15T12:19:13.109Z,29.48
2018-02-15T12:20:18.372Z,31.80
2018-02-15T12:21:22.890Z,33.35
2018-02-15T12:22:27.950Z,30.02
2018-02-15T12:23:32.552Z,26.62
2018-02-15T12:24:37.585Z,25.10
2018-02-15T12:25:43.171Z,28.48
2018-02-15T12:26:47.838Z,49.40
2018-02-15T12:27:52.371Z,34.92
2018-02-15T12:28:56.993Z,26.23
2018-02-15T12:30:02.307Z,24.85
2018-02-15T12:31:06.847Z,29.25
2018-02-15T12:32:13.270Z,26.08
2018-02-15T12:37:31.674Z,24.45
2018-02-15T12:38:35.809Z,32.55
2018-02-15T12:39:40.819Z,25.20
2018-02-15T12:40:45.816Z,32.45
2018-02-15T12:41:49.924Z,26.70
2018-02-15T12:42:54.775Z,26.05
2018-02-15T12:43:59.190Z,31.37
2018-02-15T12:45:03.995Z,30.00
2018-02-15T12:46:08.163Z,28.92
2018-02-15T12:47:12.412Z,34.40
2018-02-15T12:48:17.411Z,28.52
2018-02-15T12:49:21.559Z,24.45
2018-02-15T12:50:25.472Z,30.10
2018-02-15T12:51:29.654Z,29.27
2018-02-15T12:52:33.708Z,30.12
2018-02-15T12:53:37.890Z,29.42
2018-02-15T12:54:42.156Z,28.83
2018-02-15T12:55:47.090Z,24.85
2018-02-15T12:56:51.285Z,23.48
2018-02-15T12:57:55.584Z,25.73
2018-02-15T12:59:00.481Z,22.52
2018-02-15T13:00:04.613Z,19.92
2018-02-15T13:01:09.798Z,29.10
2018-02-15T13:02:13.910Z,32.05
2018-02-15T13:03:17.984Z,24.58
2018-02-15T13:04:22.018Z,26.80
2018-02-15T13:05:25.994Z,35.97
2018-02-15T13:06:30.092Z,39.67
2018-02-15T13:07:34.214Z,47.30
2018-02-15T13:08:38.317Z,28.70
2018-02-15T13:09:42.664Z,28.67
2018-02-15T13:10:46.605Z,28.73
2018-02-15T13:11:50.887Z,25.58
2018-02-15T13:13:33.978Z,27.80
2018-02-15T13:14:38.623Z,21.95
2018-02-15T13:16:52.845Z,26.55
2018-02-15T13:17:57.065Z,23.60
2018-02-15T13:19:10.585Z,25.25
2018-02-15T13:20:20.814Z,36.13
2018-02-15T13:21:25.898Z,32.45
2018-02-15T13:22:39.440Z,28.02
2018-02-15T13:23:43.433Z,23.33
2018-02-15T13:24:47.744Z,22.58
2018-02-15T13:25:52.972Z,26.87
2018-02-15T13:26:57.091Z,20.00
2018-02-15T13:28:37.588Z,23.48
2018-02-15T13:29:41.863Z,19.25
2018-02-15T13:30:47.077Z,27.58
2018-02-15T13:31:51.813Z,27.08
2018-02-15T13:32:55.791Z,23.87
2018-02-15T13:34:00.909Z,21.85
2018-02-15T13:35:05.037Z,23.87
2018-02-15T13:36:10.228Z,23.62
2018-02-15T13:37:14.917Z,22.80
2018-02-15T13:38:19.310Z,23.02
2018-02-15T13:39:23.397Z,27.27
2018-02-15T13:40:27.408Z,28.12
2018-02-15T13:41:31.811Z,31.55
2018-02-15T13:42:36.101Z,22.67
2018-02-15T13:43:40.943Z,26.70
2018-02-15T13:44:45.028Z,24.42
2018-02-15T13:45:49.484Z,31.33
2018-02-15T13:46:54.007Z,28.55
2018-02-15T13:48:07.710Z,28.30
2018-02-15T13:49:14.857Z,26.08
2018-02-15T13:50:19.221Z,28.65
2018-02-15T13:51:23.440Z,23.35
2018-02-15T13:52:28.622Z,28.87
2018-02-15T13:53:33.438Z,32.53
2018-02-15T13:54:39.061Z,31.95
2018-02-15T13:55:43.204Z,27.17
2018-02-15T13:56:47.488Z,26.73
2018-02-15T13:57:52.666Z,22.10
2018-02-15T13:58:57.424Z,29.90
2018-02-15T14:00:01.886Z,29.65
2018-02-15T14:01:06.842Z,27.23
2018-02-15T14:02:10.903Z,29.48
2018-02-15T14:03:14.781Z,24.63
2018-02-15T14:04:18.782Z,24.10
2018-02-15T14:05:23.866Z,28.92
2018-02-15T14:06:27.705Z,27.37